Airfield :
LOGIN :

Register | Disclaimer

   EN    FR    IT 

 










Legend :    VFR   Marginal VFR   IFR   Intensive IFR   Very Intensive IFR
Visi :
Ceiling :
>= 8 km
>= 3000ft
5 to 8 km
1000 to 3000 ft
1500m to 5 km
500 to 1000 ft
800 to 1500m
200 to 500 ft
< 800m
< 200 ft
Symbols :   Thunderstorms  Fog  Heavy snow  Heavy precipitations  Wind > 20 kt
SIGMETs :     Misc.  Thunderstorms  Icing  Turbulence  Mountain Waves  Volcanic Ashes






- Airport Elevation : 1197 ft
- IATA code : SPM


ETAD - Spangdahlem Ab

CURRENT METAR :
  • 210456Z AUTO 00000KT 9999 CLR 03/02 A2999 RMK AO2 SLP153 T00290022 $

EXPIRED METARs :
  • 210356Z AUTO 00000KT 9999 CLR 04/02 A2998 RMK AO2 SLP148 T00400017 $
  • 210256Z AUTO 00000KT 9999 CLR 05/02 A2999 RMK AO2 SLP151 T00450019 56003 $

TAF TAF ETAD
Valid from the 21 at 04:00 until the 22 at 10:00 UTC


210400Z 2104/2210 VRB03KT 9999 FEW060 QNH2997INS
BECMG 2107/2108 02006KT 9999 BKN070 620701 QNH2999INS
TEMPO 2113/2117 9000 -SHRA SCT040
BECMG 2117/2118 02007KT 9999 SCT040 BKN050 QNH3010INS
BECMG 2200/2201 03007KT 9999 SKC QNH3010INS TX16/2114Z TN01/2204Z



MET'MAP, your aeronautical weather chart ! - Copyright ORBIFLY December 2007 - Disclaimer

ORBIFLY MET'MAP TEAM :

Programming & Development : Alexandra Zaïnal
Concept & original design : Baudouin d'Aumeries
Assistance for programming : Marc-Olivier Méhu
Technical & hardware support : Manuel Goepfert

Contact : metmap@orbifly.com




SOURCES & CREDITS :

   NOAA